Time;durP1;ratioP1;P1;durP2;ratioP2;P2;SDS_P1;SDS_P2;PMS_P1;PMS_P2;Temp;Humidity;BMP_temperature;BMP_pressure;BME280_temperature;BME280_humidity;BME280_pressure;Samples;Min_cycle;Max_cycle;Signal;HPM_P1;HPM_P2
2022/04/09 00:00:50;;;;;;;;;8.00;7.50;;;;;6.25;100.00;100715.53;5079310;27;46143;-79
2022/04/09 00:03:16;;;;;;;;;7.00;6.00;;;;;6.48;100.00;100755.47;5079473;27;45437;-79
2022/04/09 00:05:43;;;;;;;;;6.50;6.25;;;;;6.45;100.00;100750.16;5086567;27;45393;-79
2022/04/09 00:08:09;;;;;;;;;6.00;5.00;;;;;6.43;100.00;100745.72;5084934;27;45484;-79
2022/04/09 00:10:35;;;;;;;;;8.50;7.00;;;;;6.34;100.00;100725.47;5078432;27;45233;-79
2022/04/09 00:13:01;;;;;;;;;6.75;6.75;;;;;6.42;100.00;100749.06;5078952;27;45539;-78
2022/04/09 00:15:27;;;;;;;;;4.50;4.50;;;;;6.27;100.00;100728.47;5067759;27;45395;-78
2022/04/09 00:17:52;;;;;;;;;5.75;4.00;;;;;6.55;100.00;100779.91;5059232;27;45692;-78
2022/04/09 00:20:20;;;;;;;;;5.00;4.25;;;;;6.35;100.00;100746.16;5069605;28;46702;-79
2022/04/09 00:22:46;;;;;;;;;4.00;4.00;;;;;6.50;100.00;100776.13;5076718;28;45984;-79
2022/04/09 00:25:14;;;;;;;;;3.50;3.50;;;;;6.25;100.00;100730.06;5055319;28;45354;-79
2022/04/09 00:27:41;;;;;;;;;4.50;4.00;;;;;6.30;100.00;100746.66;5073443;28;45248;-78
2022/04/09 00:30:12;;;;;;;;;6.00;6.00;;;;;6.54;100.00;100795.22;5076534;28;45279;-79
2022/04/09 00:32:37;;;;;;;;;7.00;3.50;;;;;6.42;100.00;100768.00;5077456;28;45350;-79
2022/04/09 00:35:05;;;;;;;;;4.50;4.00;;;;;6.40;100.00;100751.56;5077136;28;45290;-78
2022/04/09 00:37:32;;;;;;;;;10.75;7.00;;;;;6.44;100.00;100765.50;5079189;27;45489;-77
2022/04/09 00:39:57;;;;;;;;;4.00;4.00;;;;;6.69;100.00;100797.84;5088441;27;46067;-78
2022/04/09 00:42:23;;;;;;;;;3.50;3.50;;;;;6.60;100.00;100775.03;5084031;27;45350;-78
2022/04/09 00:44:50;;;;;;;;;4.75;4.75;;;;;6.56;100.00;100768.81;5093034;27;45379;-78
2022/04/09 00:47:16;;;;;;;;;6.00;3.75;;;;;6.46;100.00;100754.50;5079101;28;45453;-78
2022/04/09 00:49:42;;;;;;;;;7.75;5.75;;;;;6.67;100.00;100784.88;5076944;28;46345;-78
2022/04/09 00:52:10;;;;;;;;;4.25;3.75;;;;;6.74;100.00;100799.91;5076656;28;45366;-79
2022/04/09 00:54:40;;;;;;;;;5.00;5.00;;;;;6.72;100.00;100804.06;5077214;27;45320;-79
2022/04/09 00:57:07;;;;;;;;;3.75;3.75;;;;;6.75;100.00;100804.22;5077352;28;45409;-79
2022/04/09 00:59:39;;;;;;;;;3.00;3.00;;;;;6.81;100.00;100825.19;5076523;28;46125;-79
2022/04/09 01:02:05;;;;;;;;;5.75;3.75;;;;;6.69;100.00;100798.72;5069691;27;45959;-79
2022/04/09 01:04:32;;;;;;;;;5.75;4.75;;;;;6.88;100.00;100825.56;5076890;28;45430;-78
2022/04/09 01:07:00;;;;;;;;;4.00;4.00;;;;;6.73;100.00;100802.38;5080414;27;45644;-78
2022/04/09 01:09:26;;;;;;;;;3.50;3.50;;;;;6.65;100.00;100789.03;5076426;28;46109;-79
2022/04/09 01:11:52;;;;;;;;;2.00;2.00;;;;;6.88;100.00;100833.28;5074738;27;45636;-79
2022/04/09 01:14:18;;;;;;;;;3.75;2.00;;;;;6.82;100.00;100832.13;5079687;27;45503;-78
2022/04/09 01:16:44;;;;;;;;;2.00;2.00;;;;;6.80;100.00;100836.28;5081429;27;45585;-78
2022/04/09 01:19:10;;;;;;;;;2.50;1.75;;;;;6.45;100.00;100780.13;5076972;27;46216;-78
2022/04/09 01:21:36;;;;;;;;;3.25;1.75;;;;;6.44;100.00;100788.63;5069479;27;45268;-79
2022/04/09 01:24:04;;;;;;;;;1.75;1.00;;;;;6.55;100.00;100836.47;5089093;27;45337;-78
2022/04/09 01:26:30;;;;;;;;;1.25;1.25;;;;;6.29;100.00;100793.75;5080126;27;45331;-78
2022/04/09 01:28:55;;;;;;;;;2.25;1.00;;;;;6.53;100.00;100856.06;5077495;27;46010;-79
2022/04/09 01:31:21;;;;;;;;;1.00;1.00;;;;;6.46;100.00;100865.09;5076269;27;45309;-78
2022/04/09 01:33:47;;;;;;;;;1.00;1.00;;;;;6.41;100.00;100863.03;5076170;27;45481;-79
2022/04/09 01:36:14;;;;;;;;;1.75;1.00;;;;;6.48;100.00;100884.09;5076398;27;45458;-79
2022/04/09 01:38:41;;;;;;;;;1.25;1.25;;;;;6.40;100.00;100871.53;5075633;27;45437;-79
2022/04/09 01:41:06;;;;;;;;;2.00;2.00;;;;;6.47;100.00;100886.56;5090774;27;45890;-79
2022/04/09 01:43:32;;;;;;;;;2.00;2.00;;;;;6.37;100.00;100861.06;5086550;27;45331;-79
2022/04/09 01:45:58;;;;;;;;;3.00;3.00;;;;;6.22;100.00;100840.41;5079987;27;45526;-79
2022/04/09 01:48:23;;;;;;;;;3.50;2.00;;;;;6.56;100.00;100901.66;5065109;27;45555;-79
2022/04/09 01:50:49;;;;;;;;;3.00;2.00;;;;;6.38;100.00;100868.88;5088183;27;45300;-79
2022/04/09 01:53:15;;;;;;;;;2.00;2.00;;;;;6.40;100.00;100868.97;5079104;28;45430;-79
2022/04/09 01:55:40;;;;;;;;;2.25;2.25;;;;;6.54;100.00;100887.81;5094946;27;45354;-78
2022/04/09 01:58:06;;;;;;;;;3.00;3.00;;;;;6.46;100.00;100866.78;5099298;27;45986;-79
2022/04/09 02:00:32;;;;;;;;;2.75;2.50;;;;;6.50;100.00;100861.94;5086078;27;45841;-79
2022/04/09 02:02:58;;;;;;;;;2.00;2.00;;;;;6.70;100.00;100887.97;5104866;27;45560;-78
2022/04/09 02:05:24;;;;;;;;;3.00;3.00;;;;;6.76;100.00;100892.63;5081510;27;45338;-78
2022/04/09 02:07:51;;;;;;;;;3.00;1.75;;;;;6.56;100.00;100847.66;5081487;27;46177;-79
2022/04/09 02:10:18;;;;;;;;;2.25;2.25;;;;;6.78;100.00;100879.03;5084101;27;45808;-79
2022/04/09 02:12:45;;;;;;;;;2.50;2.50;;;;;6.87;100.00;100883.88;5101015;27;45247;-79
2022/04/09 02:15:13;;;;;;;;;3.50;2.00;;;;;6.79;100.00;100862.81;5062792;27;45557;-79
2022/04/09 02:17:40;;;;;;;;;3.25;3.00;;;;;6.95;100.00;100892.94;5080125;27;45354;-79
2022/04/09 02:20:08;;;;;;;;;3.00;3.00;;;;;6.85;100.00;100857.16;5079800;27;45432;-79
2022/04/09 02:22:37;;;;;;;;;3.50;2.75;;;;;6.85;100.00;100857.16;5091886;27;45248;-79
2022/04/09 02:25:07;;;;;;;;;4.00;2.00;;;;;6.77;100.00;100850.66;5099101;27;45492;-79
2022/04/09 02:27:32;;;;;;;;;2.50;2.50;;;;;6.96;100.00;100883.56;5084744;27;45394;-79
2022/04/09 02:29:58;;;;;;;;;4.00;3.00;;;;;6.79;100.00;100867.97;5091255;27;45262;-79
2022/04/09 02:32:24;;;;;;;;;4.00;3.25;;;;;6.87;100.00;100894.16;5095082;27;45284;-78
2022/04/09 02:34:53;;;;;;;;;5.25;4.25;;;;;6.61;100.00;100865.16;5091613;27;45627;-79
2022/04/09 02:37:20;;;;;;;;;4.75;3.00;;;;;6.82;100.00;100908.41;5097329;27;46578;-78
2022/04/09 02:39:45;;;;;;;;;5.25;4.00;;;;;6.82;100.00;100913.56;5084479;27;45992;-78
2022/04/09 02:42:12;;;;;;;;;3.00;3.00;;;;;6.85;100.00;100915.47;5083415;27;45448;-78
2022/04/09 02:44:39;;;;;;;;;3.00;3.00;;;;;6.87;100.00;100922.47;5083789;27;45335;-78
2022/04/09 02:47:05;;;;;;;;;6.75;4.75;;;;;6.64;100.00;100877.34;5069018;27;46256;-78
2022/04/09 02:49:30;;;;;;;;;4.25;4.25;;;;;6.90;100.00;100926.91;5066957;27;45373;-79
2022/04/09 02:51:56;;;;;;;;;7.25;4.00;;;;;6.70;100.00;100882.84;5060027;28;45319;-80
2022/04/09 02:54:21;;;;;;;;;7.00;7.00;;;;;6.82;100.00;100898.13;5089938;27;45244;-78
2022/04/09 02:56:47;;;;;;;;;8.00;6.00;;;;;6.90;100.00;100906.31;5098162;27;45961;-78
2022/04/09 02:59:13;;;;;;;;;6.50;5.00;;;;;6.70;100.00;100871.63;5081477;27;45355;-77
2022/04/09 03:01:46;;;;;;;;;6.50;6.50;;;;;6.97;100.00;100929.06;5080657;27;45368;-78
2022/04/09 03:04:13;;;;;;;;;8.00;7.50;;;;;6.64;100.00;100901.34;5092141;27;45652;-78
2022/04/09 03:06:39;;;;;;;;;6.00;6.00;;;;;6.78;100.00;100939.94;5086004;27;46726;-78
2022/04/09 03:09:05;;;;;;;;;6.00;4.00;;;;;6.75;100.00;100937.16;5094766;27;45437;-78
2022/04/09 03:11:30;;;;;;;;;12.75;7.00;;;;;6.58;100.00;100919.00;5080567;27;45821;-79
2022/04/09 03:13:56;;;;;;;;;5.25;5.25;;;;;6.59;100.00;100912.16;5098550;27;45631;-78
2022/04/09 03:16:22;;;;;;;;;7.00;7.00;;;;;6.61;100.00;100914.03;5097380;27;45500;-78
2022/04/09 03:18:48;;;;;;;;;5.00;4.00;;;;;6.86;100.00;100955.84;5094880;27;45439;-78
2022/04/09 03:21:14;;;;;;;;;8.25;5.50;;;;;6.71;100.00;100937.75;5085694;27;45411;-78
2022/04/09 03:23:39;;;;;;;;;4.00;4.00;;;;;6.76;100.00;100959.53;5080647;27;45334;-78
2022/04/09 03:26:05;;;;;;;;;6.50;6.50;;;;;6.58;100.00;100936.09;5078427;28;45522;-78
2022/04/09 03:28:32;;;;;;;;;6.25;6.00;;;;;6.41;100.00;100899.03;5094987;27;45771;-78
2022/04/09 03:30:58;;;;;;;;;6.00;4.00;;;;;6.53;100.00;100925.53;5080002;27;45220;-78
2022/04/09 03:33:24;;;;;;;;;7.50;6.00;;;;;6.69;100.00;100950.53;5082663;27;45444;-78
2022/04/09 03:35:50;;;;;;;;;6.50;6.50;;;;;6.77;100.00;100963.88;5077354;27;45487;-78
2022/04/09 03:38:16;;;;;;;;;8.50;7.00;;;;;6.65;100.00;100953.69;5077864;27;45335;-78
2022/04/09 03:40:42;;;;;;;;;8.50;8.50;;;;;6.77;100.00;100971.59;5088137;27;45347;-78
2022/04/09 03:43:08;;;;;;;;;7.00;6.75;;;;;6.68;100.00;100953.88;5079423;27;45522;-78
2022/04/09 03:45:34;;;;;;;;;7.75;6.00;;;;;6.86;100.00;100982.47;5084307;27;45357;-78
2022/04/09 03:48:00;;;;;;;;;6.25;6.00;;;;;6.88;100.00;100980.88;5085814;27;45282;-78
2022/04/09 03:50:26;;;;;;;;;8.00;6.75;;;;;6.72;100.00;100952.41;5082665;27;45411;-78
2022/04/09 03:52:52;;;;;;;;;6.50;5.00;;;;;6.69;100.00;100952.22;5078179;28;45512;-78
2022/04/09 03:55:17;;;;;;;;;7.25;7.25;;;;;6.70;100.00;100943.69;5077327;28;45362;-78
2022/04/09 03:57:43;;;;;;;;;7.00;5.50;;;;;6.76;100.00;100962.09;5086331;27;45419;-78
2022/04/09 04:00:09;;;;;;;;;7.50;7.50;;;;;6.81;100.00;100968.41;5102707;27;45330;-78
2022/04/09 04:02:36;;;;;;;;;9.50;7.75;;;;;6.99;100.00;100985.81;5097836;27;45468;-78
2022/04/09 04:05:03;;;;;;;;;8.75;8.75;;;;;6.99;100.00;100989.25;5097332;27;45426;-78
2022/04/09 04:07:33;;;;;;;;;8.25;7.00;;;;;6.82;100.00;100955.66;5094242;27;45447;-78
2022/04/09 04:10:04;;;;;;;;;8.00;8.00;;;;;6.97;100.00;100983.13;5090338;27;45492;-79
2022/04/09 04:12:30;;;;;;;;;7.25;7.25;;;;;7.03;100.00;100987.75;5077564;27;45342;-78
2022/04/09 04:14:56;;;;;;;;;9.00;7.00;;;;;6.94;100.00;100965.81;5096871;27;45760;-78
2022/04/09 04:17:22;;;;;;;;;6.00;4.25;;;;;6.97;100.00;100971.16;5097149;27;45394;-78
2022/04/09 04:19:47;;;;;;;;;9.00;7.25;;;;;7.07;100.00;100989.75;5097104;27;45469;-78
2022/04/09 04:22:13;;;;;;;;;6.50;6.50;;;;;6.82;100.00;100941.88;5091684;27;45581;-78
2022/04/09 04:24:38;;;;;;;;;7.50;7.00;;;;;6.79;100.00;100939.13;5062221;27;46539;-78
2022/04/09 04:27:07;;;;;;;;;8.00;7.00;;;;;6.81;100.00;100946.16;5096837;27;45516;-78
2022/04/09 04:29:34;;;;;;;;;9.50;8.25;;;;;6.70;100.00;100936.88;5080215;27;45548;-77
2022/04/09 04:32:00;;;;;;;;;7.00;7.00;;;;;6.85;100.00;100959.22;5076954;27;45446;-78
2022/04/09 04:34:27;;;;;;;;;8.50;8.00;;;;;6.77;100.00;100949.31;5077784;27;45517;-78
2022/04/09 04:36:52;;;;;;;;;11.00;11.00;;;;;6.94;100.00;100978.69;5067436;28;45398;-78
2022/04/09 04:39:18;;;;;;;;;10.00;10.00;;;;;6.97;100.00;100972.81;5081054;27;45457;-78
2022/04/09 04:41:44;;;;;;;;;10.75;9.75;;;;;7.02;100.00;100976.59;5089959;27;45467;-78
2022/04/09 04:44:12;;;;;;;;;11.75;9.00;;;;;7.08;100.00;100987.25;5076541;28;45885;-79
2022/04/09 04:46:39;;;;;;;;;5.00;5.00;;;;;7.03;100.00;100972.31;5059228;27;45999;-78
2022/04/09 04:49:05;;;;;;;;;13.75;9.50;;;;;7.19;100.00;100998.22;5076784;27;45367;-78
2022/04/09 04:51:32;;;;;;;;;10.00;9.50;;;;;7.21;100.00;101006.94;5076355;27;45335;-79
2022/04/09 04:53:58;;;;;;;;;10.00;10.00;;;;;7.22;100.00;101013.88;5074726;27;46562;-78
2022/04/09 04:56:25;;;;;;;;;13.00;11.50;;;;;7.02;100.00;100979.16;5076162;28;46098;-78
2022/04/09 04:58:51;;;;;;;;;12.25;12.25;;;;;7.06;100.00;100991.44;5082383;27;45425;-78
2022/04/09 05:01:16;;;;;;;;;14.50;12.50;;;;;7.06;100.00;100995.69;5087473;27;45536;-78
2022/04/09 05:03:42;;;;;;;;;14.75;11.00;;;;;7.22;100.00;101021.59;5079133;27;46149;-77
2022/04/09 05:06:08;;;;;;;;;11.25;11.25;;;;;7.23;100.00;101025.03;5061342;28;45383;-79
2022/04/09 05:08:33;;;;;;;;;12.25;10.75;;;;;7.15;100.00;101003.97;5081121;27;45343;-81
2022/04/09 05:10:59;;;;;;;;;15.50;14.25;;;;;7.13;100.00;101001.31;5088868;27;45567;-80
2022/04/09 05:13:25;;;;;;;;;11.75;11.75;;;;;7.23;100.00;101014.75;5083224;27;46402;-78
2022/04/09 05:15:51;;;;;;;;;15.50;12.25;;;;;7.20;100.00;100996.53;5084596;27;45355;-78
2022/04/09 05:18:16;;;;;;;;;14.50;10.50;;;;;7.23;100.00;101001.88;5077985;27;45489;-77
2022/04/09 05:20:42;;;;;;;;;12.50;12.50;;;;;7.20;100.00;100996.53;5076253;28;45298;-77
2022/04/09 05:23:08;;;;;;;;;11.75;10.25;;;;;6.96;100.00;100964.22;5075451;28;46296;-77
2022/04/09 05:25:33;;;;;;;;;15.00;10.50;;;;;7.29;100.00;101025.41;5076610;27;45461;-77
2022/04/09 05:28:08;;;;;;;;;15.00;11.25;;;;;7.00;100.00;100977.28;5075675;27;45307;-78
2022/04/09 05:30:34;;;;;;;;;10.75;9.50;;;;;7.04;100.00;100992.13;5075200;28;45581;-77
2022/04/09 05:33:01;;;;;;;;;11.25;10.25;;;;;7.25;100.00;101037.22;5077480;27;45920;-77
2022/04/09 05:35:26;;;;;;;;;12.50;10.75;;;;;7.18;100.00;101029.03;5075453;28;45867;-77
2022/04/09 05:37:52;;;;;;;;;11.00;9.50;;;;;7.10;100.00;101026.84;5079392;27;45395;-77
2022/04/09 05:40:19;;;;;;;;;10.25;9.00;;;;;7.23;100.00;101053.38;5075029;27;45459;-77
2022/04/09 05:42:44;;;;;;;;;9.25;9.25;;;;;7.05;100.00;101015.41;5078614;27;45488;-77
2022/04/09 05:45:11;;;;;;;;;9.00;9.00;;;;;7.16;100.00;101039.22;5079327;27;45284;-78
2022/04/09 05:47:44;;;;;;;;;10.00;9.50;;;;;7.04;100.00;101015.28;5077979;27;45233;-78
2022/04/09 05:50:11;;;;;;;;;10.50;8.00;;;;;7.06;100.00;101021.41;5082809;27;45223;-78
2022/04/09 05:52:36;;;;;;;;;12.00;10.00;;;;;7.21;100.00;101042.97;5088229;27;45251;-77
2022/04/09 05:55:03;;;;;;;;;11.50;11.50;;;;;7.30;100.00;101054.66;5103879;27;45419;-77
2022/04/09 05:57:33;;;;;;;;;7.00;7.00;;;;;7.24;100.00;101043.16;5094997;27;45528;-77
2022/04/09 05:59:59;;;;;;;;;9.50;9.50;;;;;7.30;100.00;101050.38;5078570;27;45292;-80
2022/04/09 06:02:25;;;;;;;;;9.00;9.00;;;;;7.15;100.00;101027.13;5076228;27;46134;-84
2022/04/09 06:04:51;;;;;;;;;7.00;7.00;;;;;7.33;100.00;101049.69;5075020;28;45253;-85
2022/04/09 06:07:17;;;;;;;;;8.25;8.00;;;;;7.26;100.00;101044.16;5087967;27;45600;-82
2022/04/09 06:09:44;;;;;;;;;6.25;5.25;;;;;7.37;100.00;101064.53;5069577;27;46160;-85
2022/04/09 06:12:10;;;;;;;;;5.00;5.00;;;;;7.38;100.00;101068.88;5058259;28;47996;-82
2022/04/09 06:14:35;;;;;;;;;5.00;4.25;;;;;7.07;100.00;101012.91;5087435;27;45748;-84
2022/04/09 06:17:02;;;;;;;;;5.00;5.00;;;;;7.31;100.00;101054.72;5064214;27;45489;-86
2022/04/09 06:19:29;;;;;;;;;9.75;8.00;;;;;7.43;100.00;101077.78;5041980;28;45433;-82
2022/04/09 06:21:56;;;;;;;;;5.00;5.00;;;;;7.46;100.00;101084.81;5073852;27;46018;-83
2022/04/09 06:24:22;;;;;;;;;7.50;7.50;;;;;7.49;100.00;101092.75;5076138;27;45949;-82
2022/04/09 06:26:47;;;;;;;;;5.75;5.00;;;;;7.39;100.00;101071.56;5065404;27;45417;-83
2022/04/09 06:29:13;;;;;;;;;10.00;8.00;;;;;7.44;100.00;101077.88;5083055;27;45269;-85
2022/04/09 06:31:38;;;;;;;;;9.75;9.75;;;;;7.40;100.00;101078.47;5085858;27;46252;-87
2022/04/09 06:34:04;;;;;;;;;8.75;8.00;;;;;7.53;100.00;101102.41;5070351;28;45358;-81
2022/04/09 06:36:30;;;;;;;;;8.75;7.75;;;;;7.42;100.00;101092.34;5081211;27;45486;-85
2022/04/09 06:38:55;;;;;;;;;8.50;6.25;;;;;7.45;100.00;101089.06;5086488;27;45618;-80
2022/04/09 06:41:21;;;;;;;;;10.75;6.75;;;;;7.42;100.00;101083.75;5080884;27;46018;-81
2022/04/09 06:43:48;;;;;;;;;7.50;7.50;;;;;7.40;100.00;101090.47;5090901;27;45440;-77
2022/04/09 06:46:14;;;;;;;;;9.00;8.50;;;;;7.54;100.00;101118.00;5078151;27;45497;-75
2022/04/09 06:48:40;;;;;;;;;8.50;8.00;;;;;7.58;100.00;101121.66;5078141;27;45299;-79
2022/04/09 06:51:06;;;;;;;;;10.50;9.25;;;;;7.59;100.00;101115.69;5077586;27;46245;-76
2022/04/09 06:53:31;;;;;;;;;11.00;9.75;;;;;7.68;100.00;101123.09;5079484;27;45244;-84
2022/04/09 06:55:58;;;;;;;;;10.00;9.00;;;;;7.70;100.00;101118.94;5079597;27;45408;-81
2022/04/09 06:58:23;;;;;;;;;8.50;8.25;;;;;7.75;100.00;101130.41;5079027;28;45589;-80
2022/04/09 07:00:49;;;;;;;;;9.25;9.25;;;;;7.74;100.00;101129.50;5078151;28;46040;-82
2022/04/09 07:03:14;;;;;;;;;13.75;10.25;;;;;7.77;100.00;101125.34;5060964;28;45405;-81
2022/04/09 07:05:41;;;;;;;;;10.00;9.00;;;;;7.80;100.00;101130.69;5081715;27;45327;-79
2022/04/09 07:08:08;;;;;;;;;11.75;11.50;;;;;7.87;100.00;101127.69;5081762;27;45542;-79
2022/04/09 07:10:36;;;;;;;;;11.25;10.50;;;;;7.85;100.00;101131.84;5080027;27;45342;-78
2022/04/09 07:13:02;;;;;;;;;10.25;9.25;;;;;7.93;100.00;101140.06;5086198;28;45197;-78
2022/04/09 07:15:28;;;;;;;;;9.50;8.75;;;;;7.95;100.00;101147.09;5063221;28;45258;-80
2022/04/09 07:17:55;;;;;;;;;10.00;8.75;;;;;7.92;100.00;101139.19;5079900;28;45625;-86
2022/04/09 07:20:21;;;;;;;;;10.50;9.25;;;;;7.94;100.00;101131.53;5060455;28;48102;-85
2022/04/09 07:22:47;;;;;;;;;10.25;8.75;;;;;7.81;100.00;101120.47;5078859;28;45413;-82
2022/04/09 07:25:13;;;;;;;;;7.00;7.00;;;;;8.01;100.00;101154.31;5079137;28;45315;-84
2022/04/09 07:27:41;;;;;;;;;6.25;6.25;;;;;7.85;100.00;101137.91;5079119;28;45581;-83
2022/04/09 07:30:10;;;;;;;;;10.25;7.00;;;;;7.93;100.00;101140.97;5078157;27;46250;-83
2022/04/09 07:32:36;;;;;;;;;10.25;9.25;;;;;7.98;100.00;101151.56;5077433;28;46671;-79
2022/04/09 07:35:01;;;;;;;;;15.00;11.50;;;;;7.89;100.00;101146.72;5077427;28;45430;-72
2022/04/09 07:37:27;;;;;;;;;9.00;9.00;;;;;8.02;100.00;101168.97;5078244;28;45334;-74
2022/04/09 07:39:53;;;;;;;;;13.00;10.50;;;;;8.06;100.00;101169.25;5079061;28;46007;-81
2022/04/09 07:42:20;;;;;;;;;8.75;8.00;;;;;8.08;100.00;101173.63;5081583;28;45299;-79
2022/04/09 07:44:46;;;;;;;;;8.50;8.50;;;;;7.94;100.00;101144.41;5080445;28;45290;-81
2022/04/09 07:47:12;;;;;;;;;12.25;9.75;;;;;8.12;100.00;101180.75;5077992;28;45220;-82
2022/04/09 07:49:37;;;;;;;;;9.75;8.50;;;;;7.95;100.00;101156.53;5079274;28;45252;-79
2022/04/09 07:52:03;;;;;;;;;8.00;7.50;;;;;7.97;100.00;101168.69;5082332;28;45223;-80
2022/04/09 07:54:30;;;;;;;;;9.75;9.00;;;;;7.87;100.00;101162.09;5081158;28;45338;-86
2022/04/09 07:56:57;;;;;;;;;9.50;8.75;;;;;7.96;100.00;101174.66;5061252;28;46100;-83
2022/04/09 07:59:23;;;;;;;;;9.75;8.75;;;;;8.00;100.00;101191.19;5077581;28;46058;-76
2022/04/09 08:01:49;;;;;;;;;11.25;10.00;;;;;8.02;100.00;101182.78;5058566;28;45812;-75
2022/04/09 08:04:15;;;;;;;;;10.75;9.50;;;;;8.02;100.00;101184.44;5077151;28;45376;-79
2022/04/09 08:06:40;;;;;;;;;8.50;8.50;;;;;8.02;100.00;101179.28;5077360;28;45487;-76
2022/04/09 08:09:06;;;;;;;;;9.25;8.75;;;;;8.10;100.00;101192.66;5076226;28;45530;-75
2022/04/09 08:11:31;;;;;;;;;9.00;9.00;;;;;8.07;100.00;101185.63;5076277;28;45256;-80
2022/04/09 08:13:57;;;;;;;;;13.00;10.00;;;;;8.03;100.00;101173.34;5077507;27;45374;-80
2022/04/09 08:16:25;;;;;;;;;12.00;10.00;;;;;8.11;100.00;101176.41;5078047;27;45269;-75
2022/04/09 08:18:50;;;;;;;;;8.50;8.50;;;;;8.04;100.00;101183.75;5079120;27;45950;-85
2022/04/09 08:21:18;;;;;;;;;7.00;7.00;;;;;8.10;100.00;101201.28;5096733;27;45382;-76
2022/04/09 08:23:44;;;;;;;;;10.50;7.75;;;;;7.95;100.00;101190.03;5098710;27;45321;-81
2022/04/09 08:26:09;;;;;;;;;9.75;8.00;;;;;7.98;100.00;101210.88;5098448;27;45233;-81
2022/04/09 08:28:36;;;;;;;;;8.75;8.50;;;;;7.97;100.00;101217.69;5088241;27;46009;-75
2022/04/09 08:31:02;;;;;;;;;8.75;7.75;;;;;7.89;100.00;101216.31;5082075;27;45850;-74
2022/04/09 08:33:28;;;;;;;;;13.25;9.25;;;;;7.85;100.00;101223.00;5080194;28;45438;-80
2022/04/09 08:35:54;;;;;;;;;6.00;4.75;;;;;7.75;100.00;101225.78;5081620;28;45243;-80
2022/04/09 08:38:19;;;;;;;;;8.75;8.75;;;;;7.74;100.00;101231.72;5081663;28;45346;-77
2022/04/09 08:40:46;;;;;;;;;6.75;6.75;;;;;7.59;100.00;101224.81;5080811;28;45352;-81
2022/04/09 08:43:11;;;;;;;;;9.00;9.00;;;;;7.67;100.00;101240.75;5091085;27;45486;-78
2022/04/09 08:45:41;;;;;;;;;9.75;8.00;;;;;7.71;100.00;101249.56;5080773;27;45404;-84
2022/04/09 08:48:08;;;;;;;;;8.00;6.75;;;;;7.60;100.00;101246.31;5086527;27;45450;-80
2022/04/09 08:50:38;;;;;;;;;10.00;7.00;;;;;7.60;100.00;101266.94;5080771;27;45465;-80
2022/04/09 08:53:08;;;;;;;;;7.00;7.00;;;;;7.58;100.00;101259.09;5077683;28;45198;-79
2022/04/09 08:55:35;;;;;;;;;7.50;7.00;;;;;7.64;100.00;101263.75;5081497;28;45303;-85
2022/04/09 08:58:01;;;;;;;;;8.50;5.00;;;;;7.61;100.00;101271.31;5091282;27;47052;-80
2022/04/09 09:00:26;;;;;;;;;8.25;7.25;;;;;7.72;100.00;101280.59;5080198;27;45383;-79
2022/04/09 09:02:54;;;;;;;;;7.25;7.25;;;;;7.73;100.00;101266.91;5077527;28;45476;-80
2022/04/09 09:05:37;;;;;;;;;7.25;5.50;;;;;7.77;100.00;101272.25;5084996;27;45585;-79
2022/04/09 09:08:03;;;;;;;;;7.00;7.00;;;;;7.71;100.00;101257.31;5088196;27;46332;-79
2022/04/09 09:10:30;;;;;;;;;7.00;5.25;;;;;7.78;100.00;101262.03;5080149;28;45799;-82
2022/04/09 09:12:58;;;;;;;;;9.75;5.00;;;;;7.85;100.00;101248.75;5078542;28;45294;-77
2022/04/09 09:15:24;;;;;;;;;6.50;6.00;;;;;7.94;100.00;101253.59;5077874;27;45319;-79
2022/04/09 09:17:55;;;;;;;;;6.75;4.75;;;;;8.13;100.00;101263.38;5078785;28;46046;-79
2022/04/09 09:20:21;;;;;;;;;4.00;4.00;;;;;8.16;100.00;101249.75;5077468;28;45419;-77
2022/04/09 09:22:49;;;;;;;;;7.00;5.25;;;;;8.28;100.00;101268.56;5087962;27;45272;-92
2022/04/09 09:25:14;;;;;;;;;6.00;6.00;;;;;8.23;100.00;101271.66;5074827;27;45600;-81
2022/04/09 09:27:40;;;;;;;;;8.00;6.00;;;;;8.29;100.00;101280.69;5098337;27;46315;-83
2022/04/09 09:30:09;;;;;;;;;10.75;9.25;;;;;8.21;100.00;101264.72;5098382;27;45450;-79
2022/04/09 09:32:35;;;;;;;;;8.00;7.50;;;;;8.28;100.00;101290.91;5100662;27;45427;-78
2022/04/09 09:35:01;;;;;;;;;7.75;7.00;;;;;8.26;100.00;101287.34;5079718;28;45224;-88
2022/04/09 09:37:29;;;;;;;;;9.00;7.25;;;;;8.33;100.00;101297.22;5077984;28;45434;-82
2022/04/09 09:39:56;;;;;;;;;7.25;7.00;;;;;8.36;100.00;101294.84;5077292;28;46029;-86
2022/04/09 09:42:23;;;;;;;;;7.00;4.00;;;;;8.43;100.00;101304.75;5077252;28;45406;-80
2022/04/09 09:44:48;;;;;;;;;7.50;4.25;;;;;8.51;100.00;101310.41;5077246;27;45535;-80
2022/04/09 09:47:20;;;;;;;;;8.00;4.75;;;;;8.59;100.00;101311.75;5076105;28;45331;-78
2022/04/09 09:49:58;;;;;;;;;7.50;7.50;;;;;8.64;100.00;101315.53;5079009;28;45429;-78
2022/04/09 09:52:30;;;;;;;;;13.00;6.25;;;;;8.62;100.00;101329.16;5079164;28;45232;-84
2022/04/09 09:55:10;;;;;;;;;8.50;7.50;;;;;8.60;100.00;101325.56;5077833;27;45904;-77
2022/04/09 09:57:38;;;;;;;;;10.00;7.75;;;;;8.57;100.00;101330.53;5076001;28;45430;-78
2022/04/09 10:00:14;;;;;;;;;10.00;7.00;;;;;8.47;100.00;101324.81;5075793;28;45388;-83
2022/04/09 10:02:40;;;;;;;;;6.50;6.50;;;;;8.54;100.00;101348.41;5079579;27;45322;-83
2022/04/09 10:05:07;;;;;;;;;10.00;7.75;;;;;8.53;100.00;101339.78;5080419;28;45519;-79
2022/04/09 10:07:34;;;;;;;;;14.00;10.50;;;;;8.66;100.00;101352.66;5081243;27;47443;-78
2022/04/09 10:10:07;;;;;;;;;5.25;5.00;;;;;8.69;100.00;101351.06;5082724;28;45797;-83
2022/04/09 10:12:41;;;;;;;;;7.25;7.25;;;;;8.73;100.00;101356.50;5081816;28;45452;-77
2022/04/09 10:15:08;;;;;;;;;8.75;7.75;;;;;8.72;100.00;101358.97;5079993;28;45383;-77
2022/04/09 10:17:34;;;;;;;;;10.00;6.25;;;;;8.71;100.00;101352.94;5079546;28;45681;-81
2022/04/09 10:20:04;;;;;;;;;12.75;9.00;;;;;8.73;100.00;101361.69;5061057;28;45303;-86
2022/04/09 10:22:35;;;;;;;;;7.75;7.75;;;;;8.76;100.00;101361.84;5079898;27;45376;-79
2022/04/09 10:25:03;;;;;;;;;10.00;9.00;;;;;8.65;100.00;101350.88;5080086;28;45207;-86
2022/04/09 10:27:40;;;;;;;;;10.75;8.00;;;;;8.70;100.00;101358.91;5080342;28;46125;-78
2022/04/09 10:30:13;;;;;;;;;7.00;7.00;;;;;8.87;100.00;101372.84;5083578;28;45430;-83
2022/04/09 10:32:41;;;;;;;;;10.50;9.00;;;;;8.79;100.00;101356.88;5080536;28;45434;-78
2022/04/09 10:35:31;;;;;;;;;7.75;7.75;;;;;9.00;100.00;101381.34;5083140;27;45469;-81
2022/04/09 10:38:23;;;;;;;;;8.00;8.00;;;;;9.01;100.00;101390.88;5068476;28;45367;-78
2022/04/09 10:40:57;;;;;;;;;11.00;9.25;;;;;9.06;100.00;101390.34;5076423;27;45713;-77
2022/04/09 10:43:26;;;;;;;;;10.00;9.00;;;;;9.11;100.00;101388.91;5084179;27;45425;-78
2022/04/09 10:46:00;;;;;;;;;9.75;8.25;;;;;9.18;100.00;101392.75;5083788;28;45328;-77
2022/04/09 10:48:33;;;;;;;;;8.00;8.00;;;;;9.23;100.00;101391.31;5060841;28;45585;-79
2022/04/09 10:51:04;;;;;;;;;10.00;10.00;;;;;9.28;100.00;101389.91;5069299;28;45348;-77
2022/04/09 10:53:51;;;;;;;;;11.00;10.00;;;;;9.36;100.00;101390.38;5062870;28;45286;-83
2022/04/09 10:56:24;;;;;;;;;10.00;9.25;;;;;9.37;100.00;101378.34;5059589;28;45505;-84
2022/04/09 10:59:08;;;;;;;;;8.75;6.75;;;;;9.53;100.00;101396.53;5059392;28;45403;-81
2022/04/09 11:01:46;;;;;;;;;10.50;10.50;;;;;9.60;100.00;101390.91;5077793;28;45347;-82
2022/04/09 11:04:36;;;;;;;;;9.50;8.75;;;;;9.66;100.00;101397.25;5081244;28;45344;-86
2022/04/09 11:07:05;;;;;;;;;13.25;10.50;;;;;9.75;100.00;101403.84;5083937;28;45527;-78
2022/04/09 11:09:54;;;;;;;;;10.00;9.00;;;;;9.87;100.00;101403.66;5070817;28;46647;-81
2022/04/09 11:12:30;;;;;;;;;11.50;10.50;;;;;9.98;100.00;101408.56;5083358;27;45264;-88
2022/04/09 11:15:04;;;;;;;;;10.25;9.25;;;;;10.10;100.00;101410.94;5079636;27;45370;-77
2022/04/09 11:17:37;;;;;;;;;8.00;6.75;;;;;10.05;98.57;101388.28;5079832;28;45391;-77
2022/04/09 11:20:07;;;;;;;;;9.25;8.50;;;;;10.28;96.44;101409.38;5079935;27;45498;-87
2022/04/09 11:22:35;;;;;;;;;7.00;7.00;;;;;10.32;94.10;101411.34;5084382;27;45908;-78